TPS weather

Vincenzo Florio Airport Trapani-Birgi
Trapani (TP), Sicily, Italy

Public forecast

Using degrees Celsius for public forecast. Weather courtesy of forecast.io.

Current aviation weather report (METAR) for Vincenzo Florio Airport Trapani-Birgi

Retrieved 2019/12/05 13:55 UTC (34 minutes ago):

LICT 051355Z 19008KT 9999 FEW028TCU 19/16 Q1020 RMK FEW VIS MIN 9999 WIND THR13 17007KT 140V220 BLU

Aviation forecast (TAF) for Vincenzo Florio Airport Trapani-Birgi

Forecast is more than 12 hours old.

Retrieved 2019/01/11 09:24 UTC (11 months ago):

TAF TAF LICT 110800Z 1109/1121 33012KT 9999 SCT025